Time;durP1;ratioP1;P1;durP2;ratioP2;P2;SDS_P1;SDS_P2;PMS_P1;PMS_P2;Temp;Humidity;BMP_temperature;BMP_pressure;BME280_temperature;BME280_humidity;BME280_pressure;Samples;Min_cycle;Max_cycle;Signal;HPM_P1;HPM_P2
2022/01/30 00:01:15;;;;;;;13.23;3.07;;;;;;;;;;5038280;28;20557;-52
2022/01/30 00:03:41;;;;;;;13.17;3.03;;;;;;;;;;5037405;28;20400;-52
2022/01/30 00:06:07;;;;;;;13.30;2.83;;;;;;;;;;5031739;28;20425;-52
2022/01/30 00:08:33;;;;;;;20.07;4.17;;;;;;;;;;5037235;28;20494;-52
2022/01/30 00:11:06;;;;;;;17.70;2.90;;;;;;;;;;5036835;28;20423;-52
2022/01/30 00:13:33;;;;;;;9.40;3.20;;;;;;;;;;5032623;28;20182;-52
2022/01/30 00:16:04;;;;;;;24.93;3.83;;;;;;;;;;5033966;28;20452;-52
2022/01/30 00:18:48;;;;;;;8.82;2.65;;;;;;;;;;5033026;28;20396;-51
2022/01/30 00:21:32;;;;;;;25.88;3.85;;;;;;;;;;5032147;28;20254;-51
2022/01/30 00:24:07;;;;;;;10.73;3.47;;;;;;;;;;5028003;28;20267;-52
2022/01/30 00:26:35;;;;;;;13.65;4.25;;;;;;;;;;5034710;28;20426;-52
2022/01/30 00:29:03;;;;;;;13.95;3.90;;;;;;;;;;5034975;28;20167;-52
2022/01/30 00:31:30;;;;;;;10.33;3.00;;;;;;;;;;5034586;28;20674;-52
2022/01/30 00:33:56;;;;;;;14.83;3.83;;;;;;;;;;5034296;28;20460;-52
2022/01/30 00:36:23;;;;;;;15.60;4.63;;;;;;;;;;5034193;28;20454;-52
2022/01/30 00:38:49;;;;;;;28.50;4.63;;;;;;;;;;5034780;28;20407;-52
2022/01/30 00:41:15;;;;;;;18.00;4.40;;;;;;;;;;5032736;28;20546;-52
2022/01/30 00:43:41;;;;;;;18.42;3.95;;;;;;;;;;5034351;28;20399;-52
2022/01/30 00:46:07;;;;;;;10.50;3.40;;;;;;;;;;5035493;28;20168;-52
2022/01/30 00:48:33;;;;;;;20.57;3.53;;;;;;;;;;5030915;28;20906;-52
2022/01/30 00:50:59;;;;;;;20.30;3.40;;;;;;;;;;5034630;28;20945;-52
2022/01/30 00:53:25;;;;;;;13.20;3.30;;;;;;;;;;5034210;28;20414;-52
2022/01/30 00:55:51;;;;;;;11.55;3.40;;;;;;;;;;5034700;28;20464;-52
2022/01/30 00:58:17;;;;;;;9.60;3.28;;;;;;;;;;5034022;28;20176;-52
2022/01/30 01:00:43;;;;;;;16.03;3.30;;;;;;;;;;5034023;28;20207;-52
2022/01/30 01:03:09;;;;;;;8.65;3.65;;;;;;;;;;5034594;28;20403;-52
2022/01/30 01:05:36;;;;;;;18.07;3.80;;;;;;;;;;5032777;28;20243;-52
2022/01/30 01:08:12;;;;;;;19.00;4.68;;;;;;;;;;5034097;28;20406;-52
2022/01/30 01:10:47;;;;;;;13.55;3.80;;;;;;;;;;5033495;28;20210;-52
2022/01/30 01:24:03;;;;;;;16.87;3.73;;;;;;;;;;5033632;28;20194;-52
2022/01/30 01:26:29;;;;;;;15.95;3.53;;;;;;;;;;5033253;28;20391;-52
2022/01/30 01:28:55;;;;;;;11.03;2.90;;;;;;;;;;5033146;28;20179;-52
2022/01/30 01:31:22;;;;;;;15.80;4.77;;;;;;;;;;5033285;28;20434;-52
2022/01/30 01:34:05;;;;;;;15.50;4.50;;;;;;;;;;5032878;28;20762;-52
2022/01/30 01:36:31;;;;;;;11.10;3.60;;;;;;;;;;5033162;28;20672;-52
2022/01/30 01:38:57;;;;;;;15.17;3.63;;;;;;;;;;5033439;28;20168;-52
2022/01/30 01:41:25;;;;;;;11.40;3.83;;;;;;;;;;5032915;28;20461;-52
2022/01/30 01:43:51;;;;;;;12.25;3.17;;;;;;;;;;5032840;28;20399;-52
2022/01/30 01:46:23;;;;;;;18.98;4.00;;;;;;;;;;5032662;28;20357;-52
2022/01/30 01:48:51;;;;;;;18.63;4.17;;;;;;;;;;5028442;28;20270;-52
2022/01/30 01:51:20;;;;;;;19.83;3.95;;;;;;;;;;5032619;28;20430;-52
2022/01/30 01:53:47;;;;;;;17.90;3.50;;;;;;;;;;5032761;28;20179;-52
2022/01/30 01:56:14;;;;;;;24.45;3.90;;;;;;;;;;5032733;28;20418;-52
2022/01/30 01:58:40;;;;;;;12.93;3.33;;;;;;;;;;5032727;28;20164;-52
2022/01/30 02:01:06;;;;;;;9.60;4.10;;;;;;;;;;5032164;28;20462;-52
2022/01/30 02:03:37;;;;;;;13.25;2.92;;;;;;;;;;5032811;28;20490;-52
2022/01/30 02:06:04;;;;;;;16.92;5.75;;;;;;;;;;5032225;28;20168;-52
2022/01/30 02:08:36;;;;;;;29.40;4.47;;;;;;;;;;5032497;28;20187;-52
2022/01/30 02:11:07;;;;;;;22.40;3.95;;;;;;;;;;5032130;28;20196;-52
2022/01/30 02:24:20;;;;;;;12.80;3.85;;;;;;;;;;5032706;28;20760;-52
2022/01/30 02:26:47;;;;;;;15.82;4.18;;;;;;;;;;5032568;28;20259;-54
2022/01/30 02:29:13;;;;;;;23.90;4.05;;;;;;;;;;5032250;28;20179;-52
2022/01/30 02:31:41;;;;;;;22.25;3.95;;;;;;;;;;5032170;28;20235;-52
2022/01/30 02:34:07;;;;;;;13.32;4.90;;;;;;;;;;5026183;28;20183;-52
2022/01/30 02:36:33;;;;;;;16.02;3.38;;;;;;;;;;5032234;28;20172;-52
2022/01/30 02:39:00;;;;;;;19.33;4.55;;;;;;;;;;5031945;28;20167;-52
2022/01/30 02:41:27;;;;;;;10.48;3.58;;;;;;;;;;5031779;28;20210;-52
2022/01/30 02:44:41;;;;;;;25.00;5.05;;;;;;;;;;5031880;28;20784;-52
2022/01/30 02:46:45;;;;;;;14.13;4.68;;;;;;;;;;5026247;28;20234;-52
2022/01/30 02:51:55;;;;;;;12.10;3.78;;;;;;;;;;5032524;28;20291;-52
2022/01/30 02:54:21;;;;;;;19.02;3.78;;;;;;;;;;5031972;28;20168;-52
2022/01/30 02:56:48;;;;;;;27.92;5.65;;;;;;;;;;5032420;28;20203;-52
2022/01/30 02:59:14;;;;;;;22.38;3.80;;;;;;;;;;5031727;28;20164;-52
2022/01/30 03:01:40;;;;;;;25.42;4.07;;;;;;;;;;5032008;28;20265;-52
2022/01/30 03:04:08;;;;;;;15.77;4.18;;;;;;;;;;5032117;28;20168;-52
2022/01/30 03:06:34;;;;;;;17.67;3.97;;;;;;;;;;5032356;28;20183;-52
2022/01/30 03:09:01;;;;;;;16.40;3.45;;;;;;;;;;5032605;28;20164;-52
2022/01/30 03:11:28;;;;;;;21.60;3.75;;;;;;;;;;5031990;28;20195;-52
2022/01/30 03:13:53;;;;;;;19.63;4.72;;;;;;;;;;5031280;28;20180;-52
2022/01/30 03:16:22;;;;;;;19.20;5.77;;;;;;;;;;5031559;28;20167;-52
2022/01/30 03:18:48;;;;;;;21.50;4.82;;;;;;;;;;5027038;28;20437;-52
2022/01/30 03:21:15;;;;;;;12.70;3.55;;;;;;;;;;5031422;28;20273;-52
2022/01/30 03:23:41;;;;;;;21.40;3.95;;;;;;;;;;5031484;28;20242;-52
2022/01/30 03:26:07;;;;;;;24.33;4.30;;;;;;;;;;5031859;28;20191;-52
2022/01/30 03:28:33;;;;;;;18.20;3.60;;;;;;;;;;5033391;28;20163;-52
2022/01/30 03:31:03;;;;;;;27.23;4.82;;;;;;;;;;5035424;28;20198;-52
2022/01/30 03:33:30;;;;;;;24.60;4.30;;;;;;;;;;5035876;28;20214;-52
2022/01/30 03:35:56;;;;;;;11.88;3.92;;;;;;;;;;5035964;28;20195;-52
2022/01/30 03:38:23;;;;;;;17.50;3.80;;;;;;;;;;5035902;28;20175;-52
2022/01/30 03:40:49;;;;;;;6.75;3.40;;;;;;;;;;5034873;28;20223;-52
2022/01/30 03:43:16;;;;;;;12.32;3.33;;;;;;;;;;5035354;28;20190;-52
2022/01/30 03:45:42;;;;;;;20.45;3.65;;;;;;;;;;5035641;28;20247;-52
2022/01/30 03:48:08;;;;;;;18.90;3.83;;;;;;;;;;5035470;28;20616;-52
2022/01/30 03:50:34;;;;;;;11.65;3.53;;;;;;;;;;5029712;28;20286;-52
2022/01/30 03:53:01;;;;;;;18.88;4.72;;;;;;;;;;5035067;28;20201;-52
2022/01/30 03:55:27;;;;;;;21.63;5.72;;;;;;;;;;5035296;28;20302;-52
2022/01/30 03:57:53;;;;;;;10.43;3.23;;;;;;;;;;5035412;28;20648;-52
2022/01/30 04:00:19;;;;;;;12.83;3.13;;;;;;;;;;5034990;28;20446;-52
2022/01/30 04:02:45;;;;;;;21.55;5.40;;;;;;;;;;5034862;28;20883;-52
2022/01/30 04:05:11;;;;;;;23.75;4.70;;;;;;;;;;5035103;28;20165;-52
2022/01/30 04:07:37;;;;;;;13.20;3.70;;;;;;;;;;5035497;28;20167;-52
2022/01/30 04:10:05;;;;;;;12.60;4.07;;;;;;;;;;5035385;28;20188;-52
2022/01/30 04:12:31;;;;;;;25.25;3.78;;;;;;;;;;5034812;28;20175;-52
2022/01/30 04:14:58;;;;;;;13.00;3.72;;;;;;;;;;5034573;28;20250;-52
2022/01/30 04:17:24;;;;;;;23.20;3.42;;;;;;;;;;5035024;28;20194;-52
2022/01/30 04:19:50;;;;;;;13.07;2.97;;;;;;;;;;5030824;28;20203;-51
2022/01/30 04:22:16;;;;;;;19.17;4.17;;;;;;;;;;5033460;28;20638;-51
2022/01/30 04:24:42;;;;;;;28.70;5.67;;;;;;;;;;5033470;28;20509;-51
2022/01/30 04:27:08;;;;;;;18.98;3.35;;;;;;;;;;5033482;28;20478;-52
2022/01/30 04:29:34;;;;;;;24.58;4.20;;;;;;;;;;5032995;28;20168;-50
2022/01/30 04:32:00;;;;;;;21.63;3.83;;;;;;;;;;5033253;28;20168;-51
2022/01/30 04:34:28;;;;;;;23.35;3.95;;;;;;;;;;5033265;28;20171;-50
2022/01/30 04:37:04;;;;;;;19.63;4.50;;;;;;;;;;5033228;28;20182;-51
2022/01/30 04:42:31;;;;;;;16.17;3.55;;;;;;;;;;5032946;28;20256;-51
2022/01/30 04:53:25;;;;;;;22.23;3.63;;;;;;;;;;5032948;28;20195;-51
2022/01/30 04:58:45;;;;;;;9.10;2.40;;;;;;;;;;5032885;28;20318;-51
2022/01/30 05:01:22;;;;;;;19.15;3.55;;;;;;;;;;5032508;28;20210;-51
2022/01/30 05:04:02;;;;;;;6.65;2.50;;;;;;;;;;5032756;28;20159;-51
2022/01/30 05:06:52;;;;;;;9.48;3.60;;;;;;;;;;5032847;28;20370;-51
2022/01/30 05:09:17;;;;;;;17.00;3.70;;;;;;;;;;5032444;28;20649;-51
2022/01/30 05:11:43;;;;;;;14.88;3.67;;;;;;;;;;5032712;28;20202;-51
2022/01/30 05:14:09;;;;;;;17.88;2.30;;;;;;;;;;5032884;28;20674;-51
2022/01/30 05:16:35;;;;;;;20.02;4.18;;;;;;;;;;5032635;28;20635;-51
2022/01/30 05:19:02;;;;;;;11.60;3.35;;;;;;;;;;5029586;28;20705;-50
2022/01/30 05:21:28;;;;;;;15.07;3.63;;;;;;;;;;5032123;28;20210;-50
2022/01/30 05:23:54;;;;;;;18.80;3.58;;;;;;;;;;5032300;28;20172;-51
2022/01/30 05:26:21;;;;;;;17.10;3.95;;;;;;;;;;5032256;28;20225;-51
2022/01/30 05:28:47;;;;;;;7.47;3.30;;;;;;;;;;5032263;28;20554;-51
2022/01/30 05:31:14;;;;;;;16.70;3.08;;;;;;;;;;5031980;28;20187;-52
2022/01/30 05:33:40;;;;;;;15.48;4.00;;;;;;;;;;5032082;28;20202;-52
2022/01/30 05:36:07;;;;;;;19.70;3.10;;;;;;;;;;5032076;28;20167;-51
2022/01/30 05:38:33;;;;;;;21.55;3.05;;;;;;;;;;5032299;28;20167;-51
2022/01/30 05:40:59;;;;;;;11.40;2.60;;;;;;;;;;5033110;28;20298;-52
2022/01/30 05:43:28;;;;;;;12.55;3.55;;;;;;;;;;5034402;28;20639;-52
2022/01/30 05:46:06;;;;;;;21.38;3.40;;;;;;;;;;5034423;28;20243;-52
2022/01/30 05:48:33;;;;;;;13.57;2.60;;;;;;;;;;5029488;28;20631;-52
2022/01/30 05:50:59;;;;;;;29.88;4.13;;;;;;;;;;5034037;28;20200;-52
2022/01/30 05:53:25;;;;;;;15.52;3.95;;;;;;;;;;5033701;28;20221;-52
2022/01/30 05:55:51;;;;;;;11.77;3.37;;;;;;;;;;5033399;28;20258;-52
2022/01/30 05:58:17;;;;;;;6.25;2.65;;;;;;;;;;5033236;28;20402;-52
2022/01/30 06:00:43;;;;;;;16.97;4.30;;;;;;;;;;5031903;28;20225;-52
2022/01/30 06:03:09;;;;;;;19.77;4.00;;;;;;;;;;5032664;28;20409;-52
2022/01/30 06:05:39;;;;;;;11.37;3.00;;;;;;;;;;5033604;28;20436;-52
2022/01/30 06:08:26;;;;;;;12.30;2.72;;;;;;;;;;5033372;28;20430;-52
2022/01/30 06:10:52;;;;;;;14.70;3.50;;;;;;;;;;5033137;28;20188;-52
2022/01/30 06:13:18;;;;;;;16.80;3.23;;;;;;;;;;5033006;28;20176;-52
2022/01/30 06:15:44;;;;;;;8.57;2.40;;;;;;;;;;5033031;28;20427;-52
2022/01/30 06:18:10;;;;;;;11.00;2.93;;;;;;;;;;5032925;28;20465;-52
2022/01/30 06:20:36;;;;;;;13.00;2.77;;;;;;;;;;5031380;28;20474;-52
2022/01/30 06:23:02;;;;;;;9.03;2.50;;;;;;;;;;5033624;28;20470;-52
2022/01/30 06:25:28;;;;;;;9.90;3.43;;;;;;;;;;5034277;28;20414;-52
2022/01/30 06:27:54;;;;;;;8.13;3.17;;;;;;;;;;5033102;28;20395;-52
2022/01/30 06:30:48;;;;;;;21.67;3.67;;;;;;;;;;5031181;28;20782;-52
2022/01/30 06:33:14;;;;;;;15.95;3.22;;;;;;;;;;5032708;28;20402;-52
2022/01/30 06:35:40;;;;;;;14.67;3.93;;;;;;;;;;5031961;28;20179;-52
2022/01/30 06:38:06;;;;;;;11.70;3.50;;;;;;;;;;5032396;28;20500;-52
2022/01/30 06:40:32;;;;;;;14.17;2.83;;;;;;;;;;5032134;28;20457;-52
2022/01/30 06:42:58;;;;;;;19.83;4.35;;;;;;;;;;5032156;28;20428;-52
2022/01/30 06:45:24;;;;;;;15.10;3.53;;;;;;;;;;5032909;28;20250;-52
2022/01/30 06:47:51;;;;;;;21.33;3.83;;;;;;;;;;5028459;28;20885;-52
2022/01/30 06:50:18;;;;;;;17.42;4.20;;;;;;;;;;5030295;28;20195;-52
2022/01/30 06:52:44;;;;;;;12.05;3.08;;;;;;;;;;5032361;28;20504;-52
2022/01/30 06:55:10;;;;;;;12.60;3.45;;;;;;;;;;5033180;28;20515;-52
2022/01/30 06:57:42;;;;;;;9.82;3.85;;;;;;;;;;5033253;28;20175;-52
2022/01/30 07:00:08;;;;;;;11.73;3.20;;;;;;;;;;5033158;28;20199;-52
2022/01/30 07:02:34;;;;;;;16.85;4.13;;;;;;;;;;5035162;28;20292;-52
2022/01/30 07:05:00;;;;;;;14.37;3.90;;;;;;;;;;5032487;28;20199;-52
2022/01/30 07:07:26;;;;;;;12.53;3.73;;;;;;;;;;5037977;28;20414;-52
2022/01/30 07:09:52;;;;;;;15.13;3.87;;;;;;;;;;5038065;28;20467;-52
2022/01/30 07:12:18;;;;;;;18.30;5.27;;;;;;;;;;5038412;28;20414;-52
2022/01/30 07:14:44;;;;;;;18.70;4.73;;;;;;;;;;5038228;28;20413;-52
2022/01/30 07:17:10;;;;;;;12.20;2.50;;;;;;;;;;5037515;28;20395;-52
2022/01/30 07:19:36;;;;;;;32.67;4.90;;;;;;;;;;5036885;28;20421;-52
2022/01/30 07:22:02;;;;;;;34.63;10.70;;;;;;;;;;5036289;28;20560;-52
2022/01/30 07:24:28;;;;;;;13.43;3.20;;;;;;;;;;5032292;28;20426;-52
2022/01/30 07:26:54;;;;;;;13.40;3.27;;;;;;;;;;5036779;28;20405;-52
2022/01/30 07:29:20;;;;;;;14.30;3.07;;;;;;;;;;5037071;28;20484;-52
2022/01/30 07:31:46;;;;;;;12.00;3.30;;;;;;;;;;5036129;28;20426;-52
2022/01/30 07:34:12;;;;;;;17.70;3.77;;;;;;;;;;5036209;28;20403;-52
2022/01/30 07:36:38;;;;;;;13.47;3.23;;;;;;;;;;5034464;28;20406;-52
2022/01/30 07:39:08;;;;;;;14.27;3.97;;;;;;;;;;5035713;28;20458;-52
2022/01/30 07:41:34;;;;;;;17.90;3.58;;;;;;;;;;5036211;28;20337;-52
2022/01/30 07:44:01;;;;;;;11.15;3.00;;;;;;;;;;5036153;28;20294;-52
2022/01/30 07:46:28;;;;;;;12.55;4.25;;;;;;;;;;5036162;28;20307;-52
2022/01/30 07:48:55;;;;;;;16.30;3.03;;;;;;;;;;5031839;28;20172;-52
2022/01/30 07:51:21;;;;;;;7.47;3.45;;;;;;;;;;5036374;28;20198;-52
2022/01/30 07:53:47;;;;;;;10.35;2.72;;;;;;;;;;5036170;28;20253;-52
2022/01/30 07:56:13;;;;;;;18.13;3.77;;;;;;;;;;5036716;28;20200;-52
2022/01/30 07:58:39;;;;;;;10.68;2.90;;;;;;;;;;5037117;28;20414;-52
2022/01/30 08:01:06;;;;;;;20.35;3.60;;;;;;;;;;5037214;28;20273;-52
2022/01/30 08:03:32;;;;;;;12.13;3.05;;;;;;;;;;5037343;28;20174;-52
2022/01/30 08:05:57;;;;;;;10.60;3.03;;;;;;;;;;5037533;28;20172;-52
2022/01/30 08:08:23;;;;;;;11.23;3.40;;;;;;;;;;5037163;28;20190;-51
2022/01/30 08:10:49;;;;;;;15.87;3.90;;;;;;;;;;5037320;28;20952;-51
2022/01/30 08:13:16;;;;;;;18.15;4.13;;;;;;;;;;5037654;28;20410;-52
2022/01/30 08:15:43;;;;;;;15.75;4.05;;;;;;;;;;5036221;28;20164;-51
2022/01/30 08:18:09;;;;;;;15.52;3.60;;;;;;;;;;5033818;28;20175;-51
2022/01/30 08:20:34;;;;;;;23.20;3.40;;;;;;;;;;5036313;28;20345;-52
2022/01/30 08:23:06;;;;;;;9.37;3.33;;;;;;;;;;5034717;28;20936;-52
2022/01/30 08:25:32;;;;;;;18.05;3.80;;;;;;;;;;5038151;28;20462;-52
2022/01/30 08:27:58;;;;;;;11.80;2.57;;;;;;;;;;5038906;28;20168;-51
2022/01/30 08:30:27;;;;;;;12.63;3.33;;;;;;;;;;5037985;28;20423;-52
2022/01/30 08:32:52;;;;;;;22.08;3.70;;;;;;;;;;5038391;28;20460;-52
2022/01/30 08:35:19;;;;;;;16.90;3.37;;;;;;;;;;5038123;28;20179;-52
2022/01/30 08:37:45;;;;;;;14.25;3.08;;;;;;;;;;5038551;28;20402;-52
2022/01/30 08:40:16;;;;;;;18.67;3.20;;;;;;;;;;5036939;28;20192;-52
2022/01/30 08:42:43;;;;;;;19.42;5.15;;;;;;;;;;5037760;28;20165;-52
2022/01/30 08:45:09;;;;;;;17.65;3.30;;;;;;;;;;5039675;28;20163;-51
2022/01/30 08:47:36;;;;;;;11.93;2.80;;;;;;;;;;5040441;28;20160;-52
2022/01/30 08:50:02;;;;;;;17.87;4.03;;;;;;;;;;5034831;28;20467;-52
2022/01/30 08:52:28;;;;;;;19.23;3.20;;;;;;;;;;5039391;28;20395;-52
2022/01/30 08:54:54;;;;;;;14.23;3.43;;;;;;;;;;5039011;28;20580;-52
2022/01/30 08:57:20;;;;;;;17.93;3.70;;;;;;;;;;5037506;28;20420;-52
2022/01/30 08:59:46;;;;;;;12.77;3.90;;;;;;;;;;5038214;28;20500;-52
2022/01/30 09:02:12;;;;;;;19.33;3.10;;;;;;;;;;5038021;28;20467;-52
2022/01/30 09:04:39;;;;;;;15.87;4.17;;;;;;;;;;5038756;28;20401;-52
2022/01/30 09:07:05;;;;;;;15.97;3.50;;;;;;;;;;5038605;28;20407;-52
2022/01/30 09:09:31;;;;;;;11.67;2.53;;;;;;;;;;5032062;28;20411;-52
2022/01/30 09:12:02;;;;;;;19.40;3.97;;;;;;;;;;5015173;28;20406;-52
2022/01/30 09:14:29;;;;;;;13.63;3.53;;;;;;;;;;5014696;28;21022;-52
2022/01/30 09:16:55;;;;;;;20.63;4.13;;;;;;;;;;5015195;28;20405;-52
2022/01/30 09:19:21;;;;;;;18.77;4.70;;;;;;;;;;5015000;28;20409;-52
2022/01/30 09:21:47;;;;;;;14.93;3.97;;;;;;;;;;5037590;28;20471;-52
2022/01/30 09:24:14;;;;;;;19.93;4.13;;;;;;;;;;5035046;28;20400;-52
2022/01/30 09:26:40;;;;;;;24.17;3.87;;;;;;;;;;5036493;28;20559;-52
2022/01/30 09:29:06;;;;;;;19.63;3.50;;;;;;;;;;5034203;28;20402;-52
2022/01/30 09:31:32;;;;;;;17.53;5.30;;;;;;;;;;5033883;28;21070;-52
2022/01/30 09:33:58;;;;;;;23.40;4.20;;;;;;;;;;5034316;28;20938;-52
2022/01/30 09:36:24;;;;;;;23.23;5.67;;;;;;;;;;5033993;28;20415;-52
2022/01/30 09:38:50;;;;;;;20.23;4.10;;;;;;;;;;5036206;28;20412;-52
2022/01/30 09:41:17;;;;;;;14.10;4.20;;;;;;;;;;5038607;28;20542;-52
2022/01/30 09:43:44;;;;;;;14.13;4.00;;;;;;;;;;5018502;28;20928;-52
2022/01/30 09:46:10;;;;;;;21.40;4.50;;;;;;;;;;5019067;28;20919;-52
2022/01/30 09:48:46;;;;;;;14.13;4.60;;;;;;;;;;5075396;28;20533;-52
2022/01/30 09:51:12;;;;;;;10.93;3.70;;;;;;;;;;5057287;28;20466;-51
2022/01/30 09:53:38;;;;;;;13.20;5.03;;;;;;;;;;5054391;28;20406;-51
2022/01/30 09:56:06;;;;;;;12.60;4.83;;;;;;;;;;5053691;28;20453;-52
2022/01/30 09:58:32;;;;;;;17.70;4.33;;;;;;;;;;5052567;28;20441;-52
2022/01/30 10:00:58;;;;;;;13.20;4.30;;;;;;;;;;5063636;28;21076;-52
2022/01/30 10:03:26;;;;;;;14.10;3.23;;;;;;;;;;5073183;28;20393;-51
2022/01/30 10:06:00;;;;;;;19.37;3.47;;;;;;;;;;5072262;28;20395;-52
2022/01/30 10:08:28;;;;;;;12.97;4.50;;;;;;;;;;5072267;28;20427;-51
2022/01/30 10:11:16;;;;;;;20.70;4.40;;;;;;;;;;5072480;28;20424;-52
2022/01/30 10:13:43;;;;;;;15.40;3.60;;;;;;;;;;5070546;28;20401;-51
2022/01/30 10:16:09;;;;;;;15.67;4.07;;;;;;;;;;5071283;28;20412;-51
2022/01/30 10:18:43;;;;;;;15.43;4.10;;;;;;;;;;5070877;28;20452;-52
2022/01/30 10:21:18;;;;;;;14.70;3.80;;;;;;;;;;5067818;28;20508;-51
2022/01/30 10:23:44;;;;;;;9.70;3.50;;;;;;;;;;5070941;28;20436;-51
2022/01/30 10:26:18;;;;;;;12.30;3.67;;;;;;;;;;5070916;28;20454;-52
2022/01/30 10:28:44;;;;;;;9.67;3.80;;;;;;;;;;5069911;28;20420;-52
2022/01/30 10:31:10;;;;;;;23.00;4.07;;;;;;;;;;5069331;28;20417;-51
2022/01/30 10:33:46;;;;;;;13.63;3.93;;;;;;;;;;5069968;28;20423;-51
2022/01/30 10:36:33;;;;;;;37.87;5.10;;;;;;;;;;5070609;28;20409;-51
2022/01/30 10:39:06;;;;;;;13.53;4.23;;;;;;;;;;5070405;28;20464;-52
2022/01/30 10:41:36;;;;;;;20.70;4.70;;;;;;;;;;5071805;28;20416;-51
2022/01/30 10:44:06;;;;;;;18.63;4.00;;;;;;;;;;5071989;28;20401;-51
2022/01/30 10:46:41;;;;;;;24.27;5.77;;;;;;;;;;5064631;28;20420;-51
2022/01/30 10:49:10;;;;;;;17.23;4.03;;;;;;;;;;5054674;28;20400;-51
2022/01/30 10:51:36;;;;;;;18.93;3.57;;;;;;;;;;5054099;28;20407;-51
2022/01/30 10:54:09;;;;;;;24.80;6.37;;;;;;;;;;5054274;28;20407;-51
2022/01/30 10:56:36;;;;;;;18.27;4.57;;;;;;;;;;5053776;28;20448;-51
2022/01/30 10:59:09;;;;;;;20.60;5.20;;;;;;;;;;5060953;28;20438;-52
2022/01/30 11:01:36;;;;;;;21.80;4.73;;;;;;;;;;5054459;28;20478;-52
2022/01/30 11:04:02;;;;;;;24.97;5.00;;;;;;;;;;5053565;28;20436;-52
2022/01/30 11:06:29;;;;;;;20.00;4.50;;;;;;;;;;5053544;28;20456;-52
2022/01/30 11:09:04;;;;;;;17.50;5.13;;;;;;;;;;5053000;28;20446;-52
2022/01/30 11:11:36;;;;;;;23.60;3.57;;;;;;;;;;5053150;28;20417;-52
2022/01/30 11:19:17;;;;;;;14.17;4.50;;;;;;;;;;5033476;28;20452;-52
2022/01/30 11:21:44;;;;;;;18.87;4.20;;;;;;;;;;5033591;28;20815;-52
2022/01/30 11:24:13;;;;;;;16.20;4.20;;;;;;;;;;5033503;28;20390;-52
2022/01/30 11:26:39;;;;;;;21.33;4.50;;;;;;;;;;5032888;28;20488;-52
2022/01/30 11:29:12;;;;;;;18.17;4.70;;;;;;;;;;5033045;28;20398;-52
2022/01/30 11:31:38;;;;;;;19.97;5.47;;;;;;;;;;5033687;28;20425;-52
2022/01/30 11:34:04;;;;;;;20.80;4.00;;;;;;;;;;5033100;28;20836;-52
2022/01/30 11:36:32;;;;;;;25.37;4.40;;;;;;;;;;5033388;28;20884;-51
2022/01/30 11:38:58;;;;;;;30.40;5.23;;;;;;;;;;5032279;28;20402;-51
2022/01/30 11:41:24;;;;;;;21.00;4.87;;;;;;;;;;5031619;28;20426;-52
2022/01/30 11:44:09;;;;;;;16.60;4.23;;;;;;;;;;5032777;28;20456;-51
2022/01/30 11:46:35;;;;;;;21.33;5.07;;;;;;;;;;5042042;28;20486;-51
2022/01/30 11:49:14;;;;;;;15.03;4.70;;;;;;;;;;5052544;28;20428;-51
2022/01/30 11:51:53;;;;;;;17.17;4.00;;;;;;;;;;5052898;28;20423;-50
2022/01/30 11:54:35;;;;;;;32.93;5.20;;;;;;;;;;5051643;28;20405;-50
2022/01/30 11:57:01;;;;;;;14.80;4.27;;;;;;;;;;5049633;28;20539;-50
2022/01/30 11:59:40;;;;;;;14.93;3.53;;;;;;;;;;5050584;28;20398;-51
2022/01/30 12:02:25;;;;;;;27.70;5.43;;;;;;;;;;5052132;28;20457;-51
2022/01/30 12:04:54;;;;;;;19.67;4.20;;;;;;;;;;5052127;28;20406;-50
2022/01/30 12:07:39;;;;;;;29.53;4.30;;;;;;;;;;5052108;28;20483;-51
2022/01/30 12:10:25;;;;;;;18.13;3.83;;;;;;;;;;5051231;28;20447;-50
2022/01/30 12:12:51;;;;;;;23.43;5.23;;;;;;;;;;5048207;28;20783;-50
2022/01/30 12:15:36;;;;;;;28.63;5.47;;;;;;;;;;5052305;28;20896;-50
2022/01/30 12:18:03;;;;;;;23.67;5.57;;;;;;;;;;5032697;28;20461;-50
2022/01/30 12:20:30;;;;;;;19.13;4.57;;;;;;;;;;5031721;28;20425;-50
2022/01/30 12:22:56;;;;;;;23.50;5.13;;;;;;;;;;5032027;28;20399;-50
2022/01/30 12:25:25;;;;;;;22.43;5.10;;;;;;;;;;5032995;28;20406;-50
2022/01/30 12:27:54;;;;;;;19.03;3.03;;;;;;;;;;5032196;28;20409;-50
2022/01/30 12:30:30;;;;;;;17.83;4.40;;;;;;;;;;5031774;28;20429;-51
2022/01/30 12:32:56;;;;;;;21.77;4.90;;;;;;;;;;5031891;28;20408;-50
2022/01/30 12:35:22;;;;;;;14.07;3.93;;;;;;;;;;5031879;28;20413;-51
2022/01/30 12:37:48;;;;;;;15.37;4.70;;;;;;;;;;5031390;28;20481;-50
2022/01/30 12:40:15;;;;;;;16.53;4.37;;;;;;;;;;5031359;28;21025;-50
2022/01/30 12:42:42;;;;;;;30.27;4.97;;;;;;;;;;5031908;28;20415;-50
2022/01/30 12:45:09;;;;;;;22.07;4.33;;;;;;;;;;5031772;28;20487;-50
2022/01/30 12:47:50;;;;;;;16.17;4.20;;;;;;;;;;5034329;28;20443;-50
2022/01/30 12:50:16;;;;;;;25.63;5.43;;;;;;;;;;5029037;28;20458;-51
2022/01/30 12:52:47;;;;;;;26.47;4.23;;;;;;;;;;5030180;28;20437;-50
2022/01/30 12:55:16;;;;;;;19.83;4.63;;;;;;;;;;5033488;28;20928;-51
2022/01/30 12:57:42;;;;;;;15.73;3.90;;;;;;;;;;5032443;28;20567;-51
2022/01/30 13:00:09;;;;;;;28.20;6.00;;;;;;;;;;5029304;28;20469;-50
2022/01/30 13:02:38;;;;;;;22.33;4.90;;;;;;;;;;5032016;28;20514;-50
2022/01/30 13:05:05;;;;;;;23.50;4.70;;;;;;;;;;5030126;28;20440;-50
2022/01/30 13:07:31;;;;;;;18.60;3.70;;;;;;;;;;5032242;28;20437;-51
2022/01/30 13:10:05;;;;;;;25.13;5.10;;;;;;;;;;5029411;28;20748;-50
2022/01/30 13:12:31;;;;;;;29.67;5.30;;;;;;;;;;5030840;28;20428;-51
2022/01/30 13:14:58;;;;;;;15.90;4.97;;;;;;;;;;5033881;28;20955;-51
2022/01/30 13:17:28;;;;;;;31.77;5.17;;;;;;;;;;5032207;28;20471;-51
2022/01/30 13:19:54;;;;;;;18.20;5.13;;;;;;;;;;5033412;28;20416;-51
2022/01/30 13:22:49;;;;;;;25.47;4.40;;;;;;;;;;5033900;28;20408;-51
2022/01/30 13:25:16;;;;;;;17.10;4.17;;;;;;;;;;5033825;28;20451;-51
2022/01/30 13:27:42;;;;;;;18.93;4.50;;;;;;;;;;5034010;28;20431;-51
2022/01/30 13:30:09;;;;;;;21.00;5.00;;;;;;;;;;5032511;28;20515;-50
2022/01/30 13:32:39;;;;;;;15.77;3.87;;;;;;;;;;5045978;28;20437;-50
2022/01/30 13:35:12;;;;;;;29.40;5.70;;;;;;;;;;5051065;28;20828;-50
2022/01/30 13:37:38;;;;;;;28.20;5.07;;;;;;;;;;5050833;28;20946;-50
2022/01/30 13:40:18;;;;;;;16.80;5.10;;;;;;;;;;5049813;28;20516;-51
2022/01/30 13:48:05;;;;;;;24.17;5.23;;;;;;;;;;5050850;28;20501;-50
2022/01/30 13:50:34;;;;;;;23.17;5.37;;;;;;;;;;5050493;28;21163;-51
2022/01/30 13:53:00;;;;;;;29.90;5.60;;;;;;;;;;5033893;28;20437;-50
2022/01/30 13:55:27;;;;;;;17.37;6.13;;;;;;;;;;5030907;28;20408;-50
2022/01/30 13:57:57;;;;;;;35.57;5.50;;;;;;;;;;5030865;28;20809;-50
2022/01/30 14:00:23;;;;;;;20.53;4.97;;;;;;;;;;5030618;28;20427;-51
2022/01/30 14:02:56;;;;;;;12.93;4.43;;;;;;;;;;5030809;28;20400;-50
2022/01/30 14:05:26;;;;;;;21.97;4.67;;;;;;;;;;5030557;28;20403;-50
2022/01/30 14:07:53;;;;;;;18.20;4.00;;;;;;;;;;5031154;28;20787;-50
2022/01/30 14:10:21;;;;;;;15.27;3.70;;;;;;;;;;5030441;28;20431;-50
2022/01/30 14:12:49;;;;;;;24.87;5.00;;;;;;;;;;5030688;28;20403;-50
2022/01/30 14:15:18;;;;;;;17.80;4.10;;;;;;;;;;5030730;28;20411;-52
2022/01/30 14:17:44;;;;;;;14.30;6.30;;;;;;;;;;5030192;28;20459;-52
2022/01/30 14:20:12;;;;;;;17.30;4.60;;;;;;;;;;5030275;28;20815;-51
2022/01/30 14:22:38;;;;;;;18.40;3.93;;;;;;;;;;5030598;28;20912;-52
2022/01/30 14:25:06;;;;;;;13.83;3.87;;;;;;;;;;5030524;28;20411;-50
2022/01/30 14:27:36;;;;;;;14.93;5.67;;;;;;;;;;5030690;28;20401;-51
2022/01/30 14:30:05;;;;;;;27.33;4.37;;;;;;;;;;5030357;28;20426;-50
2022/01/30 14:32:33;;;;;;;21.10;4.40;;;;;;;;;;5030408;28;20398;-50
2022/01/30 14:35:00;;;;;;;24.30;3.90;;;;;;;;;;5033565;28;20416;-50
2022/01/30 14:37:26;;;;;;;21.50;5.70;;;;;;;;;;5034408;28;21125;-50
2022/01/30 14:39:59;;;;;;;20.67;6.03;;;;;;;;;;5034196;28;20472;-50
2022/01/30 14:42:25;;;;;;;21.93;4.70;;;;;;;;;;5034245;28;20402;-51
2022/01/30 14:44:51;;;;;;;15.73;4.23;;;;;;;;;;5034106;28;20430;-50
2022/01/30 14:47:17;;;;;;;23.07;4.57;;;;;;;;;;5039320;28;20979;-50
2022/01/30 14:49:44;;;;;;;22.63;5.03;;;;;;;;;;5053783;28;20413;-51
2022/01/30 14:52:10;;;;;;;19.57;4.77;;;;;;;;;;5053929;28;20444;-50
2022/01/30 14:54:36;;;;;;;17.97;5.10;;;;;;;;;;5053849;28;20767;-50
2022/01/30 14:57:04;;;;;;;24.77;5.53;;;;;;;;;;5053841;28;20679;-50
2022/01/30 14:59:30;;;;;;;16.10;5.93;;;;;;;;;;5053619;28;21098;-50
2022/01/30 15:01:56;;;;;;;15.50;4.30;;;;;;;;;;5053769;28;20496;-50
2022/01/30 15:04:22;;;;;;;21.00;3.60;;;;;;;;;;5053765;28;20398;-50
2022/01/30 15:06:48;;;;;;;20.67;3.70;;;;;;;;;;5053658;28;20406;-51
2022/01/30 15:09:14;;;;;;;21.10;4.80;;;;;;;;;;5053408;28;20543;-50
2022/01/30 15:11:40;;;;;;;24.80;4.50;;;;;;;;;;5053590;28;20436;-51
2022/01/30 15:14:09;;;;;;;14.50;4.03;;;;;;;;;;5053482;28;20461;-50
2022/01/30 15:16:43;;;;;;;10.70;4.73;;;;;;;;;;5052114;28;20523;-50
2022/01/30 15:19:10;;;;;;;19.50;5.10;;;;;;;;;;5052377;28;20514;-50
2022/01/30 15:21:36;;;;;;;13.77;3.53;;;;;;;;;;5053329;28;20417;-51
2022/01/30 15:24:02;;;;;;;17.00;4.13;;;;;;;;;;5053362;28;21229;-50
2022/01/30 15:26:28;;;;;;;21.87;4.17;;;;;;;;;;5053181;28;20414;-50